Time;durP1;ratioP1;P1;durP2;ratioP2;P2;SDS_P1;SDS_P2;PMS_P1;PMS_P2;Temp;Humidity;BMP_temperature;BMP_pressure;BME280_temperature;BME280_humidity;BME280_pressure;Samples;Min_cycle;Max_cycle;Signal;HPM_P1;HPM_P2
2021/03/14 00:01:52;;;;;;;11.60;6.40;;;;;;;;;;4955528;28;20178;-88
2021/03/14 00:04:17;;;;;;;6.83;4.60;;;;;;;;;;4972908;28;20221;-89
2021/03/14 00:06:43;;;;;;;6.83;4.17;;;;;;;;;;4972629;28;20198;-88
2021/03/14 00:09:08;;;;;;;5.10;3.70;;;;;;;;;;4973985;28;20587;-89
2021/03/14 00:11:33;;;;;;;7.80;4.63;;;;;;;;;;4957046;28;20175;-90
2021/03/14 00:13:59;;;;;;;5.37;3.77;;;;;;;;;;4974783;28;20650;-90
2021/03/14 00:16:24;;;;;;;7.63;4.17;;;;;;;;;;4974691;28;20580;-90
2021/03/14 00:18:49;;;;;;;7.53;3.73;;;;;;;;;;4974932;28;20214;-90
2021/03/14 00:21:16;;;;;;;6.70;3.73;;;;;;;;;;4975953;28;20261;-89
2021/03/14 00:23:41;;;;;;;5.10;3.60;;;;;;;;;;4978672;28;20177;-90
2021/03/14 00:26:07;;;;;;;4.77;3.40;;;;;;;;;;4961115;28;20532;-90
2021/03/14 00:28:32;;;;;;;5.43;3.43;;;;;;;;;;4977804;28;20265;-90
2021/03/14 00:30:58;;;;;;;7.57;3.70;;;;;;;;;;4978092;28;20179;-90
2021/03/14 00:33:23;;;;;;;4.67;3.50;;;;;;;;;;4960586;28;20322;-91
2021/03/14 00:35:49;;;;;;;3.63;3.13;;;;;;;;;;4978051;28;20198;-90
2021/03/14 00:38:14;;;;;;;6.93;3.23;;;;;;;;;;4977816;28;20199;-90
2021/03/14 00:40:40;;;;;;;4.70;3.17;;;;;;;;;;4977572;28;20183;-90
2021/03/14 00:43:05;;;;;;;6.07;3.70;;;;;;;;;;4977848;28;20252;-90
2021/03/14 00:45:32;;;;;;;4.70;3.23;;;;;;;;;;4977857;28;20278;-90
2021/03/14 00:48:01;;;;;;;5.33;3.83;;;;;;;;;;4978103;28;20632;-90
2021/03/14 00:50:27;;;;;;;7.77;4.10;;;;;;;;;;4960469;28;20622;-89
2021/03/14 00:52:52;;;;;;;7.07;4.20;;;;;;;;;;4960105;28;20197;-89
2021/03/14 00:55:17;;;;;;;6.23;3.70;;;;;;;;;;4960257;28;20182;-90
2021/03/14 00:57:43;;;;;;;5.13;3.70;;;;;;;;;;4959371;28;20691;-90
2021/03/14 01:00:08;;;;;;;4.43;3.67;;;;;;;;;;4977643;28;20576;-88
2021/03/14 01:02:33;;;;;;;6.67;3.90;;;;;;;;;;4977331;28;20171;-90
2021/03/14 01:04:59;;;;;;;9.77;4.53;;;;;;;;;;4960666;28;20179;-90
2021/03/14 01:07:24;;;;;;;8.33;5.43;;;;;;;;;;4977262;28;20601;-89
2021/03/14 01:09:49;;;;;;;8.13;5.03;;;;;;;;;;4977410;28;20269;-90
2021/03/14 01:12:14;;;;;;;11.17;6.50;;;;;;;;;;4960322;28;20205;-89
2021/03/14 01:14:40;;;;;;;7.27;4.73;;;;;;;;;;4977226;28;20205;-89
2021/03/14 01:17:05;;;;;;;6.73;4.40;;;;;;;;;;4977579;28;20198;-89
2021/03/14 01:19:31;;;;;;;4.97;4.07;;;;;;;;;;4960294;28;20182;-90
2021/03/14 01:21:57;;;;;;;3.73;3.37;;;;;;;;;;4977495;28;20526;-90
2021/03/14 01:24:22;;;;;;;4.50;3.80;;;;;;;;;;4976871;28;20592;-90
2021/03/14 01:26:48;;;;;;;5.97;3.70;;;;;;;;;;4977202;28;20265;-89
2021/03/14 01:29:13;;;;;;;7.97;5.20;;;;;;;;;;4977364;28;20181;-89
2021/03/14 01:31:38;;;;;;;8.17;4.67;;;;;;;;;;4977111;28;20499;-89
2021/03/14 01:34:03;;;;;;;7.33;4.30;;;;;;;;;;4975766;28;20194;-90
2021/03/14 01:36:29;;;;;;;7.17;4.83;;;;;;;;;;4959800;28;20273;-90
2021/03/14 01:38:54;;;;;;;9.37;6.20;;;;;;;;;;4976602;28;20218;-90
2021/03/14 01:41:19;;;;;;;8.47;6.20;;;;;;;;;;4976943;28;20171;-90
2021/03/14 01:43:45;;;;;;;9.40;5.40;;;;;;;;;;4977100;28;20178;-89
2021/03/14 01:46:10;;;;;;;6.50;4.80;;;;;;;;;;4976808;28;20166;-89
2021/03/14 01:48:36;;;;;;;5.00;3.93;;;;;;;;;;4977060;28;20226;-90
2021/03/14 01:51:03;;;;;;;5.73;3.90;;;;;;;;;;4976711;28;20170;-90
2021/03/14 01:53:28;;;;;;;5.33;4.10;;;;;;;;;;4976759;28;20167;-89
2021/03/14 01:55:53;;;;;;;4.97;4.00;;;;;;;;;;4976835;28;20700;-90
2021/03/14 01:58:20;;;;;;;4.37;3.87;;;;;;;;;;4976559;28;20225;-89
2021/03/14 02:00:45;;;;;;;4.70;3.60;;;;;;;;;;4976235;28;20202;-89
2021/03/14 02:03:11;;;;;;;6.27;4.13;;;;;;;;;;4959107;28;20633;-89
2021/03/14 02:05:36;;;;;;;5.60;4.10;;;;;;;;;;4976470;28;20184;-90
2021/03/14 02:08:01;;;;;;;5.13;3.37;;;;;;;;;;4976762;28;20311;-89
2021/03/14 02:10:28;;;;;;;3.93;3.40;;;;;;;;;;4976281;28;20652;-90
2021/03/14 02:12:53;;;;;;;4.33;3.20;;;;;;;;;;4976749;28;20186;-89
2021/03/14 02:15:18;;;;;;;5.07;3.40;;;;;;;;;;4976711;28;20261;-89
2021/03/14 02:17:45;;;;;;;4.00;3.03;;;;;;;;;;4959150;28;20622;-90
2021/03/14 02:20:12;;;;;;;6.03;3.93;;;;;;;;;;4958790;28;20217;-89
2021/03/14 02:22:39;;;;;;;4.33;3.53;;;;;;;;;;4976213;28;20171;-89
2021/03/14 02:25:11;;;;;;;6.90;4.70;;;;;;;;;;4976265;28;20179;-89
2021/03/14 02:27:36;;;;;;;7.43;4.70;;;;;;;;;;4976618;28;20155;-89
2021/03/14 02:30:03;;;;;;;6.00;4.37;;;;;;;;;;4975892;28;20728;-89
2021/03/14 02:32:28;;;;;;;5.80;4.43;;;;;;;;;;4975551;28;20262;-89
2021/03/14 02:34:56;;;;;;;5.20;3.97;;;;;;;;;;4976063;28;20249;-89
2021/03/14 02:37:22;;;;;;;6.47;4.30;;;;;;;;;;4975484;28;20206;-89
2021/03/14 02:39:47;;;;;;;7.10;5.57;;;;;;;;;;4975805;28;20205;-90
2021/03/14 02:42:13;;;;;;;8.43;5.83;;;;;;;;;;4959203;28;20217;-89
2021/03/14 02:44:42;;;;;;;7.63;5.27;;;;;;;;;;4975225;28;20174;-89
2021/03/14 02:47:07;;;;;;;5.37;4.30;;;;;;;;;;4975394;28;20175;-89
2021/03/14 02:49:35;;;;;;;6.87;4.57;;;;;;;;;;4975295;28;20694;-89
2021/03/14 02:52:04;;;;;;;6.73;4.97;;;;;;;;;;4958559;28;20178;-89
2021/03/14 02:54:31;;;;;;;7.87;5.00;;;;;;;;;;4975402;28;20170;-89
2021/03/14 02:56:57;;;;;;;5.90;4.70;;;;;;;;;;4975682;28;20202;-89
2021/03/14 02:59:22;;;;;;;5.30;4.00;;;;;;;;;;4975458;28;20265;-89
2021/03/14 03:01:49;;;;;;;5.40;4.27;;;;;;;;;;4975745;28;20256;-89
2021/03/14 03:04:18;;;;;;;7.63;5.20;;;;;;;;;;4975456;28;20253;-89
2021/03/14 03:06:44;;;;;;;7.73;5.00;;;;;;;;;;4958072;28;20598;-89
2021/03/14 03:09:11;;;;;;;7.27;4.37;;;;;;;;;;4975124;28;20328;-89
2021/03/14 03:11:37;;;;;;;6.40;4.13;;;;;;;;;;4958946;28;20601;-89
2021/03/14 03:14:03;;;;;;;5.77;4.10;;;;;;;;;;4975448;28;20270;-89
2021/03/14 03:16:28;;;;;;;5.90;3.50;;;;;;;;;;4975702;28;20636;-89
2021/03/14 03:18:54;;;;;;;4.60;3.53;;;;;;;;;;4975344;28;20605;-89
2021/03/14 03:21:21;;;;;;;4.03;3.50;;;;;;;;;;4974834;28;20518;-89
2021/03/14 03:23:47;;;;;;;5.13;3.50;;;;;;;;;;4975122;28;20177;-89
2021/03/14 03:26:13;;;;;;;5.30;4.10;;;;;;;;;;4975321;28;20229;-89
2021/03/14 03:28:39;;;;;;;7.20;4.97;;;;;;;;;;4975358;28;20178;-89
2021/03/14 03:31:04;;;;;;;5.87;4.67;;;;;;;;;;4975414;28;20184;-89
2021/03/14 03:33:29;;;;;;;8.50;5.17;;;;;;;;;;4974790;28;20225;-88
2021/03/14 03:35:55;;;;;;;8.00;5.90;;;;;;;;;;4974702;28;20213;-89
2021/03/14 03:38:20;;;;;;;5.23;4.50;;;;;;;;;;4974936;28;20190;-88
2021/03/14 03:40:45;;;;;;;6.13;4.60;;;;;;;;;;4974672;28;20175;-88
2021/03/14 03:43:17;;;;;;;6.87;4.37;;;;;;;;;;4975152;28;20532;-89
2021/03/14 03:45:43;;;;;;;5.13;4.03;;;;;;;;;;4974642;28;20166;-89
2021/03/14 03:48:12;;;;;;;5.13;3.87;;;;;;;;;;4974565;28;20174;-88
2021/03/14 03:50:38;;;;;;;6.23;4.10;;;;;;;;;;4974837;28;20589;-88
2021/03/14 03:53:05;;;;;;;6.90;4.50;;;;;;;;;;4974807;28;20198;-89
2021/03/14 03:55:30;;;;;;;5.20;4.13;;;;;;;;;;4957240;28;20265;-88
2021/03/14 03:57:56;;;;;;;4.93;3.33;;;;;;;;;;4979212;28;20281;-89
2021/03/14 04:00:22;;;;;;;4.30;3.90;;;;;;;;;;4978782;28;20185;-89
2021/03/14 04:02:47;;;;;;;5.67;3.70;;;;;;;;;;4978618;28;20170;-89
2021/03/14 04:05:13;;;;;;;6.80;4.17;;;;;;;;;;4978875;28;20171;-89
2021/03/14 04:07:40;;;;;;;5.93;4.40;;;;;;;;;;4979042;28;20175;-89
2021/03/14 04:10:07;;;;;;;7.93;4.70;;;;;;;;;;4978762;28;20257;-88
2021/03/14 04:12:33;;;;;;;6.50;4.63;;;;;;;;;;4978658;28;20174;-89
2021/03/14 04:15:00;;;;;;;5.80;4.50;;;;;;;;;;4978575;28;20175;-88
2021/03/14 04:17:25;;;;;;;7.07;4.57;;;;;;;;;;4978157;28;20206;-88
2021/03/14 04:19:51;;;;;;;5.73;4.53;;;;;;;;;;4978384;28;20638;-89
2021/03/14 04:22:16;;;;;;;6.50;4.47;;;;;;;;;;4978562;28;20183;-88
2021/03/14 04:24:42;;;;;;;6.07;4.73;;;;;;;;;;4978610;28;20302;-90
2021/03/14 04:27:07;;;;;;;5.20;4.53;;;;;;;;;;4977982;28;20197;-90
2021/03/14 04:29:33;;;;;;;5.53;4.10;;;;;;;;;;4977911;28;20541;-90
2021/03/14 04:31:59;;;;;;;6.67;4.50;;;;;;;;;;4978349;28;20174;-90
2021/03/14 04:34:26;;;;;;;6.90;4.60;;;;;;;;;;4978185;28;20687;-90
2021/03/14 04:36:52;;;;;;;6.67;4.90;;;;;;;;;;4977703;28;20261;-90
2021/03/14 04:39:17;;;;;;;8.90;5.77;;;;;;;;;;4978798;28;20262;-89
2021/03/14 04:41:44;;;;;;;8.87;5.93;;;;;;;;;;4977698;28;20178;-90
2021/03/14 04:44:10;;;;;;;8.00;5.87;;;;;;;;;;4977725;28;20170;-89
2021/03/14 04:46:36;;;;;;;7.30;5.40;;;;;;;;;;4977838;28;20171;-88
2021/03/14 04:49:01;;;;;;;6.33;4.67;;;;;;;;;;4977907;28;20249;-88
2021/03/14 04:51:28;;;;;;;7.07;5.00;;;;;;;;;;4977962;28;20181;-88
2021/03/14 04:53:54;;;;;;;6.00;4.87;;;;;;;;;;4977753;28;20186;-89
2021/03/14 04:56:20;;;;;;;6.83;5.13;;;;;;;;;;4977471;28;20270;-88
2021/03/14 04:58:47;;;;;;;6.40;4.43;;;;;;;;;;4977303;28;20626;-89
2021/03/14 05:01:12;;;;;;;8.03;5.13;;;;;;;;;;4977340;28;20179;-89
2021/03/14 05:03:40;;;;;;;7.87;4.87;;;;;;;;;;4977303;28;20683;-90
2021/03/14 05:06:05;;;;;;;8.47;6.20;;;;;;;;;;4977493;28;20233;-88
2021/03/14 05:08:32;;;;;;;8.03;5.83;;;;;;;;;;4977539;28;20178;-88
2021/03/14 05:10:57;;;;;;;10.90;6.80;;;;;;;;;;4960108;28;20743;-89
2021/03/14 05:13:22;;;;;;;10.03;6.47;;;;;;;;;;4977410;28;20178;-88
2021/03/14 05:15:51;;;;;;;8.47;6.60;;;;;;;;;;4977583;28;20186;-89
2021/03/14 05:18:17;;;;;;;9.13;6.20;;;;;;;;;;4977329;28;20205;-89
2021/03/14 05:20:42;;;;;;;11.00;6.50;;;;;;;;;;4977527;28;20246;-89
2021/03/14 05:23:07;;;;;;;8.30;6.20;;;;;;;;;;4977357;28;20302;-89
2021/03/14 05:25:33;;;;;;;8.30;6.07;;;;;;;;;;4976958;28;20549;-88
2021/03/14 05:28:00;;;;;;;8.80;6.30;;;;;;;;;;4976990;28;20629;-88
2021/03/14 05:30:27;;;;;;;8.37;6.13;;;;;;;;;;4959865;28;20181;-88
2021/03/14 05:32:53;;;;;;;7.90;5.60;;;;;;;;;;4977123;28;20618;-87
2021/03/14 05:35:19;;;;;;;9.20;6.10;;;;;;;;;;4976806;28;20186;-88
2021/03/14 05:37:45;;;;;;;8.93;6.40;;;;;;;;;;4976870;28;20204;-89
2021/03/14 05:40:11;;;;;;;7.97;6.47;;;;;;;;;;4976961;28;20178;-89
2021/03/14 05:42:38;;;;;;;8.33;5.97;;;;;;;;;;4976426;28;20253;-88
2021/03/14 05:45:04;;;;;;;7.27;6.00;;;;;;;;;;4976796;28;20175;-88
2021/03/14 05:47:30;;;;;;;9.83;6.63;;;;;;;;;;4959335;28;20183;-88
2021/03/14 05:49:55;;;;;;;10.40;6.50;;;;;;;;;;4977296;28;20174;-87
2021/03/14 05:52:21;;;;;;;6.57;5.50;;;;;;;;;;4976677;28;20182;-87
2021/03/14 05:54:47;;;;;;;7.27;5.80;;;;;;;;;;4976908;28;20182;-87
2021/03/14 05:57:15;;;;;;;6.70;4.80;;;;;;;;;;4976727;28;20285;-87
2021/03/14 05:59:41;;;;;;;7.10;5.43;;;;;;;;;;4976231;28;20183;-87
2021/03/14 06:02:06;;;;;;;8.07;6.20;;;;;;;;;;4976165;28;20641;-88
2021/03/14 06:04:33;;;;;;;9.77;6.37;;;;;;;;;;4976767;28;20178;-87
2021/03/14 06:06:58;;;;;;;7.90;6.33;;;;;;;;;;4976651;28;20185;-88
2021/03/14 06:09:23;;;;;;;8.67;6.27;;;;;;;;;;4976108;28;20234;-88
2021/03/14 06:11:48;;;;;;;11.03;6.63;;;;;;;;;;4976639;28;20182;-87
2021/03/14 06:14:14;;;;;;;10.77;7.27;;;;;;;;;;4976329;28;20174;-88
2021/03/14 06:16:40;;;;;;;10.20;6.40;;;;;;;;;;4975854;28;20177;-87
2021/03/14 06:19:05;;;;;;;9.17;6.30;;;;;;;;;;4976161;28;20238;-88
2021/03/14 06:21:31;;;;;;;8.73;5.77;;;;;;;;;;4976158;28;20178;-87
2021/03/14 06:24:01;;;;;;;8.60;6.20;;;;;;;;;;4976319;28;20171;-88
2021/03/14 06:26:37;;;;;;;10.30;6.80;;;;;;;;;;4976606;28;20193;-88
2021/03/14 06:29:17;;;;;;;7.60;5.50;;;;;;;;;;4976696;28;20163;-88
2021/03/14 06:31:44;;;;;;;10.40;6.10;;;;;;;;;;4976008;28;20189;-88
2021/03/14 06:34:22;;;;;;;7.43;5.40;;;;;;;;;;4974560;28;20560;-89
2021/03/14 06:36:47;;;;;;;9.87;6.33;;;;;;;;;;4994961;28;20241;-90
2021/03/14 06:39:19;;;;;;;8.63;5.60;;;;;;;;;;4995315;28;20281;-91
2021/03/14 06:41:45;;;;;;;9.90;6.70;;;;;;;;;;4995483;28;20166;-90
2021/03/14 06:44:20;;;;;;;8.43;6.17;;;;;;;;;;4995408;28;20170;-91
2021/03/14 06:46:45;;;;;;;7.73;6.10;;;;;;;;;;4995443;28;20201;-90
2021/03/14 06:49:14;;;;;;;9.67;6.00;;;;;;;;;;4995243;28;20169;-90
2021/03/14 06:51:41;;;;;;;7.30;5.50;;;;;;;;;;4995314;28;20177;-90
2021/03/14 06:54:25;;;;;;;8.23;5.73;;;;;;;;;;4977476;28;20197;-90
2021/03/14 06:57:03;;;;;;;8.13;5.67;;;;;;;;;;4977895;28;20275;-90
2021/03/14 06:59:29;;;;;;;5.77;4.63;;;;;;;;;;4977537;28;20239;-90
2021/03/14 07:02:14;;;;;;;6.80;5.03;;;;;;;;;;4994897;28;20256;-90
2021/03/14 07:04:43;;;;;;;8.50;5.13;;;;;;;;;;4995148;28;20166;-91
2021/03/14 07:07:27;;;;;;;6.67;5.20;;;;;;;;;;4994530;28;20177;-91
2021/03/14 07:10:00;;;;;;;7.97;5.13;;;;;;;;;;4994726;28;20275;-91
2021/03/14 07:12:27;;;;;;;6.33;4.60;;;;;;;;;;4989901;28;20181;-91
2021/03/14 07:14:53;;;;;;;6.63;5.10;;;;;;;;;;4977802;28;20178;-90
2021/03/14 07:17:30;;;;;;;7.37;5.57;;;;;;;;;;4994340;28;20206;-90
2021/03/14 07:19:56;;;;;;;6.27;4.43;;;;;;;;;;4995264;28;20586;-90
2021/03/14 07:22:22;;;;;;;5.27;4.43;;;;;;;;;;4994682;28;20534;-90
2021/03/14 07:24:47;;;;;;;6.40;4.47;;;;;;;;;;4994917;28;20170;-90
2021/03/14 07:27:18;;;;;;;4.40;4.00;;;;;;;;;;4994846;28;20267;-90
2021/03/14 07:29:43;;;;;;;5.97;4.80;;;;;;;;;;4994611;28;20173;-91
2021/03/14 07:32:09;;;;;;;5.50;4.53;;;;;;;;;;4976563;28;20181;-89
2021/03/14 07:34:34;;;;;;;7.97;4.63;;;;;;;;;;4993003;28;20181;-90
2021/03/14 07:37:00;;;;;;;9.00;5.40;;;;;;;;;;4992336;28;20216;-89
2021/03/14 07:39:25;;;;;;;6.80;4.97;;;;;;;;;;4993020;28;20177;-89
2021/03/14 07:41:51;;;;;;;6.50;4.93;;;;;;;;;;4993223;28;20166;-90
2021/03/14 07:44:17;;;;;;;6.40;5.27;;;;;;;;;;4994449;28;20176;-90
2021/03/14 07:46:43;;;;;;;6.37;5.10;;;;;;;;;;4977201;28;20617;-91
2021/03/14 07:49:11;;;;;;;8.50;5.63;;;;;;;;;;4976785;28;20177;-90
2021/03/14 07:51:37;;;;;;;6.80;5.27;;;;;;;;;;4994584;28;20621;-91
2021/03/14 07:54:05;;;;;;;10.97;8.03;;;;;;;;;;4994096;28;20181;-91
2021/03/14 07:56:31;;;;;;;7.03;5.80;;;;;;;;;;4976800;28;20228;-90
2021/03/14 07:58:57;;;;;;;4.53;3.80;;;;;;;;;;4994357;28;20201;-90
2021/03/14 08:01:26;;;;;;;4.27;3.87;;;;;;;;;;4994540;28;20182;-90
2021/03/14 08:03:52;;;;;;;4.50;4.07;;;;;;;;;;4994478;28;20609;-90
2021/03/14 08:06:30;;;;;;;6.13;3.73;;;;;;;;;;4994587;28;20311;-90
2021/03/14 08:08:55;;;;;;;5.67;4.50;;;;;;;;;;4966427;28;20210;-89
2021/03/14 08:11:21;;;;;;;5.90;4.00;;;;;;;;;;4974872;28;20166;-90
2021/03/14 08:13:47;;;;;;;6.27;4.53;;;;;;;;;;4974766;28;20521;-90
2021/03/14 08:16:13;;;;;;;6.17;4.53;;;;;;;;;;4974449;28;20183;-89
2021/03/14 08:18:41;;;;;;;9.67;6.90;;;;;;;;;;4974482;28;20210;-89
2021/03/14 08:21:26;;;;;;;8.37;6.33;;;;;;;;;;4974336;28;20174;-90
2021/03/14 08:23:58;;;;;;;6.67;4.87;;;;;;;;;;4974253;28;20171;-89
2021/03/14 08:26:33;;;;;;;5.47;4.50;;;;;;;;;;4974358;28;20171;-89
2021/03/14 08:29:01;;;;;;;4.73;4.13;;;;;;;;;;4975314;28;20541;-89
2021/03/14 08:31:45;;;;;;;4.53;4.07;;;;;;;;;;4974547;28;20640;-89
2021/03/14 08:34:19;;;;;;;4.67;3.77;;;;;;;;;;4989374;28;20556;-90
2021/03/14 08:36:44;;;;;;;4.90;4.17;;;;;;;;;;4973963;28;20170;-90
2021/03/14 08:39:19;;;;;;;5.77;3.80;;;;;;;;;;4974533;28;20202;-90
2021/03/14 08:41:51;;;;;;;6.10;3.93;;;;;;;;;;4975099;28;20162;-89
2021/03/14 08:44:38;;;;;;;5.70;3.80;;;;;;;;;;4960585;28;20174;-91
2021/03/14 08:47:05;;;;;;;4.90;4.00;;;;;;;;;;4977340;28;20172;-90
2021/03/14 08:49:32;;;;;;;6.73;4.50;;;;;;;;;;4978246;28;20202;-89
2021/03/14 08:51:57;;;;;;;4.27;3.10;;;;;;;;;;4962959;28;20185;-90
2021/03/14 08:54:26;;;;;;;4.20;3.73;;;;;;;;;;4997458;28;20166;-90
2021/03/14 08:56:56;;;;;;;5.40;3.90;;;;;;;;;;4979664;28;20178;-90
2021/03/14 08:59:21;;;;;;;6.47;4.57;;;;;;;;;;4996579;28;20197;-88
2021/03/14 09:01:50;;;;;;;6.63;5.23;;;;;;;;;;4994695;28;20181;-87
2021/03/14 09:04:16;;;;;;;7.83;5.07;;;;;;;;;;4994944;28;20170;-90
2021/03/14 09:06:42;;;;;;;7.57;5.03;;;;;;;;;;4994883;28;20312;-90
2021/03/14 09:09:10;;;;;;;5.43;4.40;;;;;;;;;;4994850;28;20284;-90
2021/03/14 09:11:40;;;;;;;4.80;3.63;;;;;;;;;;4994872;28;20253;-89
2021/03/14 09:14:21;;;;;;;7.57;4.27;;;;;;;;;;4994918;28;20174;-89
2021/03/14 09:16:46;;;;;;;7.07;5.37;;;;;;;;;;4994702;28;20181;-89
2021/03/14 09:19:22;;;;;;;4.87;4.20;;;;;;;;;;4994572;28;20671;-89
2021/03/14 09:21:51;;;;;;;7.23;4.53;;;;;;;;;;4994658;28;20177;-88
2021/03/14 09:24:23;;;;;;;7.33;5.07;;;;;;;;;;4994909;28;20213;-90
2021/03/14 09:26:53;;;;;;;6.63;4.87;;;;;;;;;;4994944;28;20298;-89
2021/03/14 09:29:31;;;;;;;7.37;5.90;;;;;;;;;;4982707;28;20178;-87
2021/03/14 09:31:56;;;;;;;6.00;4.30;;;;;;;;;;4995560;28;20198;-87
2021/03/14 09:34:22;;;;;;;4.80;3.90;;;;;;;;;;4983894;28;20669;-89
2021/03/14 09:36:49;;;;;;;5.83;4.13;;;;;;;;;;4975042;28;20649;-89
2021/03/14 09:39:21;;;;;;;5.30;4.20;;;;;;;;;;4975239;28;20182;-88
2021/03/14 09:41:46;;;;;;;4.13;3.23;;;;;;;;;;4975221;28;20242;-88
2021/03/14 09:44:13;;;;;;;4.43;3.93;;;;;;;;;;4974852;28;20274;-88
2021/03/14 09:46:38;;;;;;;4.57;4.10;;;;;;;;;;4974618;28;20178;-89
2021/03/14 09:49:13;;;;;;;6.27;4.53;;;;;;;;;;4974968;28;20167;-87
2021/03/14 09:51:39;;;;;;;5.90;4.23;;;;;;;;;;4974675;28;20159;-87
2021/03/14 09:54:08;;;;;;;6.07;3.87;;;;;;;;;;4973959;28;20194;-87
2021/03/14 09:56:34;;;;;;;8.47;5.03;;;;;;;;;;4955967;28;20265;-87
2021/03/14 09:59:00;;;;;;;4.83;3.40;;;;;;;;;;4975801;28;20290;-88
2021/03/14 10:01:26;;;;;;;3.60;3.30;;;;;;;;;;4976003;28;20178;-88
2021/03/14 10:03:57;;;;;;;6.97;3.70;;;;;;;;;;4976323;28;20173;-89
2021/03/14 10:06:22;;;;;;;4.87;3.90;;;;;;;;;;4975831;28;20739;-89
2021/03/14 10:08:48;;;;;;;5.70;4.10;;;;;;;;;;4975987;28;20175;-87
2021/03/14 10:11:15;;;;;;;5.43;3.90;;;;;;;;;;4976123;28;20206;-88
2021/03/14 10:13:43;;;;;;;7.83;4.30;;;;;;;;;;4976192;28;20179;-87
2021/03/14 10:16:13;;;;;;;8.73;4.50;;;;;;;;;;4976222;28;20261;-89
2021/03/14 10:18:38;;;;;;;5.07;4.00;;;;;;;;;;4976124;28;20213;-90
2021/03/14 10:21:17;;;;;;;6.37;3.87;;;;;;;;;;4975825;28;20179;-89
2021/03/14 10:23:43;;;;;;;4.60;3.90;;;;;;;;;;4958597;28;20189;-88
2021/03/14 10:26:09;;;;;;;6.17;4.63;;;;;;;;;;4975421;28;20185;-88
2021/03/14 10:28:39;;;;;;;4.23;3.70;;;;;;;;;;4976039;28;20543;-88
2021/03/14 10:31:06;;;;;;;5.40;4.00;;;;;;;;;;4975942;28;20178;-88
2021/03/14 10:33:32;;;;;;;4.53;4.03;;;;;;;;;;4983168;28;20189;-87
2021/03/14 10:36:02;;;;;;;3.77;3.03;;;;;;;;;;4976090;28;20558;-88
2021/03/14 10:38:27;;;;;;;4.87;3.50;;;;;;;;;;4973370;28;20284;-87
2021/03/14 10:41:07;;;;;;;4.37;3.47;;;;;;;;;;4968698;28;20178;-88
2021/03/14 10:43:32;;;;;;;4.83;3.43;;;;;;;;;;4973298;28;20163;-87
2021/03/14 10:45:57;;;;;;;4.77;3.50;;;;;;;;;;4972218;28;20189;-89
2021/03/14 10:48:27;;;;;;;3.50;3.20;;;;;;;;;;4974477;28;20178;-90
2021/03/14 10:51:02;;;;;;;3.97;3.27;;;;;;;;;;4974955;28;20704;-89
2021/03/14 10:53:28;;;;;;;3.87;2.90;;;;;;;;;;4974131;28;20167;-90
2021/03/14 10:56:04;;;;;;;3.47;3.10;;;;;;;;;;4974555;28;20529;-89
2021/03/14 10:58:36;;;;;;;3.40;3.00;;;;;;;;;;4975799;28;20228;-89
2021/03/14 11:01:04;;;;;;;5.80;4.10;;;;;;;;;;4974626;28;20181;-89
2021/03/14 11:03:37;;;;;;;4.87;3.50;;;;;;;;;;4956693;28;20536;-89
2021/03/14 11:06:09;;;;;;;5.67;3.50;;;;;;;;;;4974472;28;20158;-89
2021/03/14 11:08:49;;;;;;;3.60;2.93;;;;;;;;;;4990990;28;20189;-89
2021/03/14 11:11:15;;;;;;;5.03;3.87;;;;;;;;;;4993932;28;20181;-89
2021/03/14 11:13:40;;;;;;;3.63;3.03;;;;;;;;;;4992891;28;20236;-89
2021/03/14 11:16:06;;;;;;;13.27;8.20;;;;;;;;;;4993108;28;20170;-87
2021/03/14 11:18:31;;;;;;;8.97;4.40;;;;;;;;;;4993562;28;20193;-90
2021/03/14 11:20:57;;;;;;;6.50;5.10;;;;;;;;;;4976760;28;20244;-90
2021/03/14 11:23:22;;;;;;;6.43;3.87;;;;;;;;;;4994068;28;20181;-89
2021/03/14 11:25:47;;;;;;;4.40;3.67;;;;;;;;;;4994272;28;20260;-89
2021/03/14 11:28:13;;;;;;;4.70;3.70;;;;;;;;;;4994321;28;20567;-90
2021/03/14 11:30:38;;;;;;;8.50;6.00;;;;;;;;;;4980532;28;20667;-90
2021/03/14 11:33:03;;;;;;;9.50;7.00;;;;;;;;;;4953843;28;20264;-90
2021/03/14 11:35:29;;;;;;;9.63;6.23;;;;;;;;;;4953567;28;20553;-90
2021/03/14 11:37:54;;;;;;;8.70;5.87;;;;;;;;;;4953837;28;20569;-89
2021/03/14 11:40:19;;;;;;;3.60;3.30;;;;;;;;;;4973308;28;20182;-90
2021/03/14 11:42:46;;;;;;;6.23;3.80;;;;;;;;;;4971397;28;20189;-90
2021/03/14 11:45:11;;;;;;;4.30;3.90;;;;;;;;;;4953767;28;20193;-90
2021/03/14 11:47:37;;;;;;;4.60;3.80;;;;;;;;;;4971547;28;20178;-89
2021/03/14 11:50:03;;;;;;;4.80;4.10;;;;;;;;;;4973030;28;20182;-90
2021/03/14 11:52:28;;;;;;;4.83;3.50;;;;;;;;;;4970749;28;20204;-89
2021/03/14 11:54:53;;;;;;;3.47;3.17;;;;;;;;;;4972138;28;20261;-90
2021/03/14 11:57:19;;;;;;;4.37;3.57;;;;;;;;;;4970862;28;20212;-89
2021/03/14 11:59:44;;;;;;;8.70;5.50;;;;;;;;;;4971404;28;20653;-90
2021/03/14 12:02:09;;;;;;;8.20;5.87;;;;;;;;;;4954220;28;20182;-88
2021/03/14 12:07:10;;;;;;;4.53;3.40;;;;;;;;;;5452267;23;20249;-87
2021/03/14 12:09:35;;;;;;;3.70;3.07;;;;;;;;;;4956598;28;20595;-87
2021/03/14 12:12:04;;;;;;;5.73;4.30;;;;;;;;;;4971724;28;20183;-87
2021/03/14 12:14:29;;;;;;;5.10;3.90;;;;;;;;;;4973216;28;20167;-88
2021/03/14 12:16:54;;;;;;;4.80;4.40;;;;;;;;;;4972408;28;20695;-87
2021/03/14 12:19:20;;;;;;;3.80;3.40;;;;;;;;;;4960595;28;20190;-86
2021/03/14 12:21:45;;;;;;;5.90;3.73;;;;;;;;;;4977084;28;20174;-87
2021/03/14 12:24:10;;;;;;;4.67;3.43;;;;;;;;;;4976509;28;20612;-87
2021/03/14 12:26:35;;;;;;;3.60;3.30;;;;;;;;;;4977555;28;20182;-87
2021/03/14 12:29:02;;;;;;;3.93;3.20;;;;;;;;;;4976249;28;20348;-87
2021/03/14 12:31:28;;;;;;;5.93;3.70;;;;;;;;;;4977745;28;20189;-87
2021/03/14 12:33:53;;;;;;;3.50;3.20;;;;;;;;;;4976611;28;20190;-87
2021/03/14 12:36:19;;;;;;;3.63;3.07;;;;;;;;;;4959751;28;20207;-87
2021/03/14 12:38:44;;;;;;;4.63;3.60;;;;;;;;;;4976657;28;20201;-87
2021/03/14 12:41:09;;;;;;;7.50;4.13;;;;;;;;;;4976585;28;20222;-87
2021/03/14 12:43:35;;;;;;;5.27;4.27;;;;;;;;;;4976299;28;20187;-87
2021/03/14 12:46:00;;;;;;;5.00;4.50;;;;;;;;;;4975594;28;20514;-87
2021/03/14 12:48:26;;;;;;;11.07;8.20;;;;;;;;;;4976348;28;20198;-87
2021/03/14 12:50:51;;;;;;;5.10;4.50;;;;;;;;;;4976473;28;20261;-87
2021/03/14 12:53:17;;;;;;;4.43;3.73;;;;;;;;;;4976812;28;20639;-87
2021/03/14 12:55:42;;;;;;;5.13;4.10;;;;;;;;;;4976925;28;20175;-87
2021/03/14 12:58:07;;;;;;;9.47;7.13;;;;;;;;;;4976297;28;20266;-88
2021/03/14 13:00:33;;;;;;;8.30;5.90;;;;;;;;;;4976467;28;20266;-89
2021/03/14 13:02:58;;;;;;;6.10;4.90;;;;;;;;;;4973633;28;20175;-88
2021/03/14 13:05:25;;;;;;;7.20;4.63;;;;;;;;;;4977191;28;20171;-88
2021/03/14 13:07:50;;;;;;;6.70;4.70;;;;;;;;;;4977239;28;20234;-88
2021/03/14 13:10:15;;;;;;;8.47;5.30;;;;;;;;;;4977300;28;20173;-90
2021/03/14 13:12:41;;;;;;;8.37;7.10;;;;;;;;;;4977131;28;20251;-90
2021/03/14 13:15:07;;;;;;;8.30;5.60;;;;;;;;;;4977004;28;20644;-90
2021/03/14 13:17:32;;;;;;;6.60;4.70;;;;;;;;;;4977436;28;20183;-90
2021/03/14 13:19:58;;;;;;;5.00;4.27;;;;;;;;;;4977336;28;20170;-89
2021/03/14 13:22:23;;;;;;;5.17;4.40;;;;;;;;;;4959864;28;20182;-89
2021/03/14 13:24:48;;;;;;;6.13;4.93;;;;;;;;;;4977330;28;20167;-90
2021/03/14 13:27:13;;;;;;;5.40;4.30;;;;;;;;;;4976188;28;20214;-89
2021/03/14 13:29:41;;;;;;;6.13;5.00;;;;;;;;;;4975969;28;20174;-88
2021/03/14 13:32:06;;;;;;;6.10;5.00;;;;;;;;;;4975394;28;20171;-88
2021/03/14 13:34:32;;;;;;;6.93;5.57;;;;;;;;;;4977804;28;20265;-90
2021/03/14 13:36:57;;;;;;;8.97;5.40;;;;;;;;;;4993386;28;20189;-88
2021/03/14 13:39:22;;;;;;;7.67;5.47;;;;;;;;;;4972887;28;20187;-89
2021/03/14 13:41:48;;;;;;;5.63;5.03;;;;;;;;;;4977382;28;20565;-89
2021/03/14 13:44:13;;;;;;;6.63;4.53;;;;;;;;;;4977369;28;20609;-89
2021/03/14 13:46:39;;;;;;;9.07;6.00;;;;;;;;;;4976848;28;20206;-88
2021/03/14 13:49:04;;;;;;;5.00;4.47;;;;;;;;;;4976643;28;20596;-89
2021/03/14 13:51:29;;;;;;;6.87;5.50;;;;;;;;;;4976527;28;20226;-89
2021/03/14 13:53:55;;;;;;;6.67;5.17;;;;;;;;;;4959474;28;20178;-90
2021/03/14 13:56:20;;;;;;;5.40;4.70;;;;;;;;;;4976712;28;20261;-89
2021/03/14 13:58:47;;;;;;;6.57;5.17;;;;;;;;;;4976546;28;20178;-88
2021/03/14 14:01:12;;;;;;;6.03;4.40;;;;;;;;;;4976768;28;20171;-88
2021/03/14 14:03:38;;;;;;;6.10;4.67;;;;;;;;;;4976594;28;20183;-89
2021/03/14 14:06:04;;;;;;;6.70;5.03;;;;;;;;;;4976360;28;20680;-89
2021/03/14 14:08:29;;;;;;;6.60;4.33;;;;;;;;;;4976542;28;20234;-90
2021/03/14 14:10:55;;;;;;;5.50;3.93;;;;;;;;;;4959100;28;20175;-89
2021/03/14 14:13:21;;;;;;;4.77;3.87;;;;;;;;;;4976450;28;20174;-89
2021/03/14 14:15:47;;;;;;;6.27;4.43;;;;;;;;;;4976406;28;20174;-88
2021/03/14 14:18:12;;;;;;;6.87;4.03;;;;;;;;;;4975676;28;20182;-89
2021/03/14 14:20:40;;;;;;;6.67;4.70;;;;;;;;;;4976006;28;20187;-92
2021/03/14 14:23:06;;;;;;;4.57;4.10;;;;;;;;;;4974963;28;20643;-90
2021/03/14 14:25:31;;;;;;;5.83;4.00;;;;;;;;;;4976119;28;20262;-89
2021/03/14 14:27:57;;;;;;;4.63;3.83;;;;;;;;;;4975938;28;20584;-89
2021/03/14 14:30:24;;;;;;;7.83;4.40;;;;;;;;;;4975874;28;20613;-89
2021/03/14 14:32:50;;;;;;;7.93;4.93;;;;;;;;;;4976108;28;20171;-91
2021/03/14 14:35:15;;;;;;;7.30;5.13;;;;;;;;;;4975799;28;20189;-90
2021/03/14 14:37:40;;;;;;;7.83;4.70;;;;;;;;;;4975794;28;20186;-90
2021/03/14 14:40:06;;;;;;;7.20;5.20;;;;;;;;;;4975002;28;20171;-86
2021/03/14 14:42:31;;;;;;;5.20;4.53;;;;;;;;;;4974462;28;20629;-87
2021/03/14 14:44:57;;;;;;;5.10;4.60;;;;;;;;;;4975016;28;20175;-87